sensor_id;sensor_type;location;lat;lon;timestamp;P1;durP1;ratioP1;P2;durP2;ratioP2
58244;SDS011;44550;43.864;25.986;2023-09-18T00:17:07;10.30;;;7.07;;
58244;SDS011;44550;43.864;25.986;2023-09-18T00:21:28;11.95;;;7.07;;
58244;SDS011;44550;43.864;25.986;2023-09-18T00:25:44;11.60;;;8.02;;
58244;SDS011;44550;43.864;25.986;2023-09-18T00:29:45;13.18;;;6.80;;
58244;SDS011;44550;43.864;25.986;2023-09-18T00:33:48;11.48;;;7.38;;
58244;SDS011;44550;43.864;25.986;2023-09-18T00:37:49;11.93;;;7.47;;
58244;SDS011;44550;43.864;25.986;2023-09-18T00:41:55;13.65;;;7.05;;
58244;SDS011;44550;43.864;25.986;2023-09-18T00:46:31;8.95;;;6.32;;
58244;SDS011;44550;43.864;25.986;2023-09-18T00:50:54;7.07;;;5.93;;
58244;SDS011;44550;43.864;25.986;2023-09-18T00:54:58;9.07;;;6.32;;
58244;SDS011;44550;43.864;25.986;2023-09-18T00:59:06;13.00;;;7.15;;
58244;SDS011;44550;43.864;25.986;2023-09-18T01:03:14;10.18;;;6.70;;
58244;SDS011;44550;43.864;25.986;2023-09-18T01:07:28;11.27;;;7.53;;
58244;SDS011;44550;43.864;25.986;2023-09-18T01:11:43;15.38;;;7.90;;
58244;SDS011;44550;43.864;25.986;2023-09-18T01:16:20;12.82;;;8.02;;
58244;SDS011;44550;43.864;25.986;2023-09-18T01:21:03;13.98;;;8.73;;
58244;SDS011;44550;43.864;25.986;2023-09-18T01:25:23;12.73;;;8.43;;
58244;SDS011;44550;43.864;25.986;2023-09-18T01:30:03;8.82;;;6.78;;
58244;SDS011;44550;43.864;25.986;2023-09-18T01:34:14;11.70;;;7.38;;
58244;SDS011;44550;43.864;25.986;2023-09-18T01:38:32;19.92;;;8.15;;
58244;SDS011;44550;43.864;25.986;2023-09-18T01:43:27;10.52;;;6.75;;
58244;SDS011;44550;43.864;25.986;2023-09-18T01:47:49;11.18;;;6.07;;
58244;SDS011;44550;43.864;25.986;2023-09-18T01:58:04;11.10;;;6.55;;
58244;SDS011;44550;43.864;25.986;2023-09-18T02:02:57;8.73;;;6.50;;
58244;SDS011;44550;43.864;25.986;2023-09-18T02:07:32;8.75;;;6.32;;
58244;SDS011;44550;43.864;25.986;2023-09-18T02:12:14;10.52;;;5.80;;
58244;SDS011;44550;43.864;25.986;2023-09-18T02:17:04;8.30;;;5.30;;
58244;SDS011;44550;43.864;25.986;2023-09-18T02:22:06;9.65;;;6.63;;
58244;SDS011;44550;43.864;25.986;2023-09-18T02:27:06;11.30;;;6.85;;
58244;SDS011;44550;43.864;25.986;2023-09-18T02:31:43;9.68;;;7.03;;
58244;SDS011;44550;43.864;25.986;2023-09-18T02:36:09;13.63;;;6.85;;
58244;SDS011;44550;43.864;25.986;2023-09-18T02:40:52;17.13;;;7.05;;
58244;SDS011;44550;43.864;25.986;2023-09-18T02:45:34;11.60;;;7.35;;
58244;SDS011;44550;43.864;25.986;2023-09-18T02:50:05;7.82;;;5.75;;
58244;SDS011;44550;43.864;25.986;2023-09-18T02:54:40;10.50;;;6.60;;
58244;SDS011;44550;43.864;25.986;2023-09-18T02:58:52;6.80;;;5.70;;
58244;SDS011;44550;43.864;25.986;2023-09-18T03:03:02;6.75;;;6.00;;
58244;SDS011;44550;43.864;25.986;2023-09-18T03:07:20;8.13;;;6.38;;
58244;SDS011;44550;43.864;25.986;2023-09-18T03:11:46;9.82;;;6.47;;
58244;SDS011;44550;43.864;25.986;2023-09-18T03:25:56;8.65;;;6.13;;
58244;SDS011;44550;43.864;25.986;2023-09-18T03:30:38;8.38;;;6.57;;
58244;SDS011;44550;43.864;25.986;2023-09-18T03:35:08;12.82;;;7.15;;
58244;SDS011;44550;43.864;25.986;2023-09-18T03:40:11;8.60;;;6.43;;
58244;SDS011;44550;43.864;25.986;2023-09-18T03:45:30;8.63;;;6.13;;
58244;SDS011;44550;43.864;25.986;2023-09-18T03:50:02;13.90;;;6.50;;
58244;SDS011;44550;43.864;25.986;2023-09-18T03:54:58;9.77;;;7.20;;
58244;SDS011;44550;43.864;25.986;2023-09-18T03:59:52;11.98;;;7.28;;
58244;SDS011;44550;43.864;25.986;2023-09-18T04:04:46;11.10;;;7.18;;
58244;SDS011;44550;43.864;25.986;2023-09-18T04:09:23;14.30;;;8.68;;
58244;SDS011;44550;43.864;25.986;2023-09-18T04:13:27;13.48;;;9.05;;
58244;SDS011;44550;43.864;25.986;2023-09-18T04:18:06;10.00;;;7.10;;
58244;SDS011;44550;43.864;25.986;2023-09-18T04:22:32;15.30;;;8.68;;
58244;SDS011;44550;43.864;25.986;2023-09-18T04:27:10;16.88;;;8.77;;
58244;SDS011;44550;43.864;25.986;2023-09-18T04:31:45;11.52;;;9.50;;
58244;SDS011;44550;43.864;25.986;2023-09-18T04:36:19;11.52;;;7.70;;
58244;SDS011;44550;43.864;25.986;2023-09-18T04:40:35;11.25;;;8.60;;
58244;SDS011;44550;43.864;25.986;2023-09-18T04:44:41;15.30;;;9.52;;
58244;SDS011;44550;43.864;25.986;2023-09-18T04:48:49;13.38;;;9.75;;
58244;SDS011;44550;43.864;25.986;2023-09-18T04:52:57;11.38;;;9.52;;
58244;SDS011;44550;43.864;25.986;2023-09-18T04:56:58;15.02;;;9.27;;
58244;SDS011;44550;43.864;25.986;2023-09-18T05:01:06;16.75;;;7.70;;
58244;SDS011;44550;43.864;25.986;2023-09-18T05:05:42;11.20;;;7.63;;
58244;SDS011;44550;43.864;25.986;2023-09-18T05:09:52;17.00;;;8.85;;
58244;SDS011;44550;43.864;25.986;2023-09-18T05:13:53;12.82;;;8.50;;
58244;SDS011;44550;43.864;25.986;2023-09-18T05:17:59;13.95;;;8.82;;
58244;SDS011;44550;43.864;25.986;2023-09-18T05:22:01;12.77;;;10.15;;
58244;SDS011;44550;43.864;25.986;2023-09-18T05:26:05;13.38;;;9.45;;
58244;SDS011;44550;43.864;25.986;2023-09-18T05:30:06;16.98;;;10.20;;
58244;SDS011;44550;43.864;25.986;2023-09-18T05:34:09;13.55;;;8.60;;
58244;SDS011;44550;43.864;25.986;2023-09-18T05:38:13;12.32;;;9.30;;
58244;SDS011;44550;43.864;25.986;2023-09-18T05:42:19;13.57;;;9.07;;
58244;SDS011;44550;43.864;25.986;2023-09-18T05:46:23;19.30;;;9.18;;
58244;SDS011;44550;43.864;25.986;2023-09-18T05:50:32;15.45;;;8.90;;
58244;SDS011;44550;43.864;25.986;2023-09-18T05:54:40;11.93;;;8.27;;
58244;SDS011;44550;43.864;25.986;2023-09-18T05:58:41;12.20;;;8.50;;
58244;SDS011;44550;43.864;25.986;2023-09-18T06:02:49;14.63;;;7.93;;
58244;SDS011;44550;43.864;25.986;2023-09-18T06:06:53;14.25;;;7.88;;
58244;SDS011;44550;43.864;25.986;2023-09-18T06:11:00;15.43;;;8.82;;
58244;SDS011;44550;43.864;25.986;2023-09-18T06:15:00;11.18;;;7.93;;
58244;SDS011;44550;43.864;25.986;2023-09-18T06:19:01;14.15;;;8.30;;
58244;SDS011;44550;43.864;25.986;2023-09-18T06:23:06;16.10;;;7.32;;
58244;SDS011;44550;43.864;25.986;2023-09-18T06:31:26;12.75;;;7.10;;
58244;SDS011;44550;43.864;25.986;2023-09-18T06:35:32;12.60;;;7.18;;
58244;SDS011;44550;43.864;25.986;2023-09-18T06:39:46;16.13;;;7.32;;
58244;SDS011;44550;43.864;25.986;2023-09-18T06:43:55;12.70;;;7.43;;
58244;SDS011;44550;43.864;25.986;2023-09-18T06:48:00;14.13;;;7.25;;
58244;SDS011;44550;43.864;25.986;2023-09-18T06:52:13;11.32;;;7.32;;
58244;SDS011;44550;43.864;25.986;2023-09-18T06:56:21;11.43;;;7.90;;
58244;SDS011;44550;43.864;25.986;2023-09-18T07:05:08;22.15;;;8.13;;
58244;SDS011;44550;43.864;25.986;2023-09-18T07:09:52;14.35;;;7.53;;
58244;SDS011;44550;43.864;25.986;2023-09-18T07:14:25;10.90;;;6.75;;
58244;SDS011;44550;43.864;25.986;2023-09-18T07:23:46;11.33;;;7.13;;
58244;SDS011;44550;43.864;25.986;2023-09-18T07:28:24;9.00;;;6.00;;
58244;SDS011;44550;43.864;25.986;2023-09-18T07:32:52;6.60;;;5.28;;
58244;SDS011;44550;43.864;25.986;2023-09-18T07:37:25;10.18;;;6.10;;
58244;SDS011;44550;43.864;25.986;2023-09-18T07:41:55;8.57;;;6.38;;
58244;SDS011;44550;43.864;25.986;2023-09-18T07:46:51;9.55;;;5.53;;
58244;SDS011;44550;43.864;25.986;2023-09-18T07:51:19;13.00;;;5.72;;
58244;SDS011;44550;43.864;25.986;2023-09-18T07:56:24;8.45;;;5.10;;
58244;SDS011;44550;43.864;25.986;2023-09-18T08:01:18;6.63;;;5.30;;
58244;SDS011;44550;43.864;25.986;2023-09-18T08:06:27;4.53;;;4.13;;
58244;SDS011;44550;43.864;25.986;2023-09-18T08:16:14;8.43;;;5.22;;
58244;SDS011;44550;43.864;25.986;2023-09-18T08:20:25;8.43;;;5.60;;
58244;SDS011;44550;43.864;25.986;2023-09-18T08:24:43;6.57;;;5.50;;
58244;SDS011;44550;43.864;25.986;2023-09-18T08:29:00;7.88;;;4.70;;
58244;SDS011;44550;43.864;25.986;2023-09-18T08:33:12;6.50;;;5.15;;
58244;SDS011;44550;43.864;25.986;2023-09-18T08:37:50;6.13;;;4.75;;
58244;SDS011;44550;43.864;25.986;2023-09-18T08:42:05;6.07;;;5.32;;
58244;SDS011;44550;43.864;25.986;2023-09-18T08:46:16;7.32;;;5.03;;
58244;SDS011;44550;43.864;25.986;2023-09-18T08:50:39;5.97;;;4.35;;
58244;SDS011;44550;43.864;25.986;2023-09-18T09:00:10;7.80;;;5.15;;
58244;SDS011;44550;43.864;25.986;2023-09-18T09:04:32;5.60;;;4.68;;
58244;SDS011;44550;43.864;25.986;2023-09-18T09:08:47;11.05;;;4.35;;
58244;SDS011;44550;43.864;25.986;2023-09-18T09:13:00;5.72;;;4.57;;
58244;SDS011;44550;43.864;25.986;2023-09-18T09:17:17;11.00;;;5.20;;
58244;SDS011;44550;43.864;25.986;2023-09-18T09:21:39;11.57;;;5.80;;
58244;SDS011;44550;43.864;25.986;2023-09-18T09:26:11;5.20;;;4.60;;
58244;SDS011;44550;43.864;25.986;2023-09-18T09:30:39;5.65;;;5.13;;
58244;SDS011;44550;43.864;25.986;2023-09-18T09:34:42;7.70;;;5.00;;
58244;SDS011;44550;43.864;25.986;2023-09-18T09:38:43;5.72;;;5.22;;
58244;SDS011;44550;43.864;25.986;2023-09-18T09:42:49;9.45;;;5.57;;
58244;SDS011;44550;43.864;25.986;2023-09-18T09:46:57;8.55;;;5.47;;
58244;SDS011;44550;43.864;25.986;2023-09-18T09:51:23;6.22;;;4.80;;
58244;SDS011;44550;43.864;25.986;2023-09-18T10:00:31;10.93;;;5.35;;
58244;SDS011;44550;43.864;25.986;2023-09-18T10:05:00;5.50;;;4.82;;
58244;SDS011;44550;43.864;25.986;2023-09-18T10:09:12;5.97;;;5.38;;
58244;SDS011;44550;43.864;25.986;2023-09-18T10:13:26;5.43;;;4.95;;
58244;SDS011;44550;43.864;25.986;2023-09-18T10:17:44;7.93;;;5.18;;
58244;SDS011;44550;43.864;25.986;2023-09-18T10:22:01;5.43;;;4.75;;
58244;SDS011;44550;43.864;25.986;2023-09-18T10:26:22;5.60;;;5.10;;
58244;SDS011;44550;43.864;25.986;2023-09-18T10:30:29;10.93;;;6.03;;
58244;SDS011;44550;43.864;25.986;2023-09-18T10:38:38;6.45;;;5.75;;
58244;SDS011;44550;43.864;25.986;2023-09-18T10:42:45;6.78;;;5.53;;
58244;SDS011;44550;43.864;25.986;2023-09-18T10:47:00;10.23;;;5.65;;
58244;SDS011;44550;43.864;25.986;2023-09-18T10:51:09;8.20;;;5.72;;
58244;SDS011;44550;43.864;25.986;2023-09-18T10:55:16;8.20;;;5.82;;
58244;SDS011;44550;43.864;25.986;2023-09-18T10:59:29;8.00;;;5.57;;
58244;SDS011;44550;43.864;25.986;2023-09-18T11:03:31;6.07;;;5.18;;
58244;SDS011;44550;43.864;25.986;2023-09-18T11:07:40;5.95;;;5.45;;
58244;SDS011;44550;43.864;25.986;2023-09-18T11:11:53;8.15;;;5.35;;
58244;SDS011;44550;43.864;25.986;2023-09-18T11:20:40;5.53;;;5.03;;
58244;SDS011;44550;43.864;25.986;2023-09-18T11:29:51;10.63;;;5.63;;
58244;SDS011;44550;43.864;25.986;2023-09-18T11:34:03;7.63;;;4.70;;
58244;SDS011;44550;43.864;25.986;2023-09-18T11:38:27;5.82;;;4.80;;
58244;SDS011;44550;43.864;25.986;2023-09-18T11:47:58;9.83;;;4.70;;
58244;SDS011;44550;43.864;25.986;2023-09-18T11:52:15;8.38;;;5.15;;
58244;SDS011;44550;43.864;25.986;2023-09-18T11:56:23;8.35;;;5.15;;
58244;SDS011;44550;43.864;25.986;2023-09-18T12:00:40;6.95;;;4.78;;
58244;SDS011;44550;43.864;25.986;2023-09-18T12:04:58;6.65;;;5.18;;
58244;SDS011;44550;43.864;25.986;2023-09-18T12:09:55;5.45;;;4.93;;
58244;SDS011;44550;43.864;25.986;2023-09-18T12:14:11;7.13;;;5.00;;
58244;SDS011;44550;43.864;25.986;2023-09-18T12:19:14;8.07;;;5.15;;
58244;SDS011;44550;43.864;25.986;2023-09-18T12:23:40;7.97;;;5.15;;
58244;SDS011;44550;43.864;25.986;2023-09-18T12:32:27;5.03;;;4.63;;
58244;SDS011;44550;43.864;25.986;2023-09-18T12:37:10;6.13;;;5.53;;
58244;SDS011;44550;43.864;25.986;2023-09-18T12:47:36;6.32;;;5.40;;
58244;SDS011;44550;43.864;25.986;2023-09-18T12:52:38;9.63;;;8.65;;
58244;SDS011;44550;43.864;25.986;2023-09-18T12:57:04;18.58;;;13.45;;
58244;SDS011;44550;43.864;25.986;2023-09-18T13:01:34;6.65;;;5.97;;
58244;SDS011;44550;43.864;25.986;2023-09-18T13:06:19;6.50;;;4.80;;
58244;SDS011;44550;43.864;25.986;2023-09-18T13:11:10;8.18;;;4.88;;
58244;SDS011;44550;43.864;25.986;2023-09-18T13:15:42;6.07;;;5.47;;
58244;SDS011;44550;43.864;25.986;2023-09-18T13:21:00;13.13;;;7.22;;
58244;SDS011;44550;43.864;25.986;2023-09-18T13:25:32;7.35;;;4.55;;
58244;SDS011;44550;43.864;25.986;2023-09-18T13:29:54;21.63;;;11.80;;
58244;SDS011;44550;43.864;25.986;2023-09-18T13:34:24;5.68;;;5.03;;
58244;SDS011;44550;43.864;25.986;2023-09-18T13:48:47;10.23;;;7.30;;
58244;SDS011;44550;43.864;25.986;2023-09-18T14:04:16;5.93;;;5.32;;
58244;SDS011;44550;43.864;25.986;2023-09-18T14:09:08;8.00;;;6.10;;
58244;SDS011;44550;43.864;25.986;2023-09-18T14:14:14;7.10;;;5.00;;
58244;SDS011;44550;43.864;25.986;2023-09-18T14:19:27;5.05;;;4.55;;
58244;SDS011;44550;43.864;25.986;2023-09-18T14:24:13;6.38;;;4.75;;
58244;SDS011;44550;43.864;25.986;2023-09-18T14:35:11;6.63;;;5.78;;
58244;SDS011;44550;43.864;25.986;2023-09-18T14:40:21;8.23;;;5.32;;
58244;SDS011;44550;43.864;25.986;2023-09-18T14:49:42;5.83;;;5.30;;
58244;SDS011;44550;43.864;25.986;2023-09-18T14:54:27;5.70;;;5.10;;
58244;SDS011;44550;43.864;25.986;2023-09-18T14:58:45;6.38;;;5.65;;
58244;SDS011;44550;43.864;25.986;2023-09-18T15:03:24;7.15;;;5.22;;
58244;SDS011;44550;43.864;25.986;2023-09-18T15:08:06;9.35;;;4.88;;
58244;SDS011;44550;43.864;25.986;2023-09-18T15:43:44;7.72;;;5.15;;
58244;SDS011;44550;43.864;25.986;2023-09-18T15:48:17;7.43;;;5.50;;
58244;SDS011;44550;43.864;25.986;2023-09-18T15:53:50;7.88;;;5.68;;
58244;SDS011;44550;43.864;25.986;2023-09-18T15:59:28;14.73;;;5.67;;
58244;SDS011;44550;43.864;25.986;2023-09-18T16:04:13;11.68;;;6.43;;
58244;SDS011;44550;43.864;25.986;2023-09-18T16:08:46;8.73;;;6.23;;
58244;SDS011;44550;43.864;25.986;2023-09-18T17:02:17;9.40;;;5.57;;
58244;SDS011;44550;43.864;25.986;2023-09-18T17:14:01;7.45;;;5.72;;
58244;SDS011;44550;43.864;25.986;2023-09-18T17:36:52;15.60;;;7.35;;
58244;SDS011;44550;43.864;25.986;2023-09-18T17:42:09;10.38;;;5.47;;
58244;SDS011;44550;43.864;25.986;2023-09-18T17:53:26;9.15;;;5.85;;
58244;SDS011;44550;43.864;25.986;2023-09-18T17:58:10;8.98;;;6.28;;
58244;SDS011;44550;43.864;25.986;2023-09-18T18:03:24;7.20;;;6.45;;
58244;SDS011;44550;43.864;25.986;2023-09-18T18:13:17;8.77;;;6.32;;
58244;SDS011;44550;43.864;25.986;2023-09-18T18:18:08;11.00;;;6.28;;
58244;SDS011;44550;43.864;25.986;2023-09-18T18:22:24;5.50;;;5.00;;
58244;SDS011;44550;43.864;25.986;2023-09-18T18:26:56;5.63;;;5.05;;
58244;SDS011;44550;43.864;25.986;2023-09-18T18:31:55;7.65;;;5.50;;
58244;SDS011;44550;43.864;25.986;2023-09-18T18:37:35;12.05;;;5.65;;
58244;SDS011;44550;43.864;25.986;2023-09-18T18:48:00;8.88;;;6.18;;
58244;SDS011;44550;43.864;25.986;2023-09-18T19:07:37;6.53;;;5.75;;
58244;SDS011;44550;43.864;25.986;2023-09-18T19:12:34;4.63;;;4.25;;
58244;SDS011;44550;43.864;25.986;2023-09-18T19:17:11;12.82;;;5.07;;
58244;SDS011;44550;43.864;25.986;2023-09-18T19:21:12;4.97;;;4.47;;
58244;SDS011;44550;43.864;25.986;2023-09-18T19:25:16;9.43;;;4.85;;
58244;SDS011;44550;43.864;25.986;2023-09-18T19:51:20;6.65;;;4.90;;
58244;SDS011;44550;43.864;25.986;2023-09-18T19:56:04;6.88;;;5.22;;
58244;SDS011;44550;43.864;25.986;2023-09-18T20:01:17;5.55;;;4.38;;
58244;SDS011;44550;43.864;25.986;2023-09-18T20:05:48;6.03;;;5.07;;
58244;SDS011;44550;43.864;25.986;2023-09-18T20:15:29;8.45;;;5.55;;
58244;SDS011;44550;43.864;25.986;2023-09-18T20:20:37;6.15;;;5.30;;
58244;SDS011;44550;43.864;25.986;2023-09-18T20:49:22;5.55;;;5.05;;
58244;SDS011;44550;43.864;25.986;2023-09-18T22:56:52;11.90;;;6.00;;
58244;SDS011;44550;43.864;25.986;2023-09-18T23:01:03;6.03;;;5.43;;
58244;SDS011;44550;43.864;25.986;2023-09-18T23:05:09;5.43;;;4.93;;
58244;SDS011;44550;43.864;25.986;2023-09-18T23:09:15;6.47;;;4.97;;
58244;SDS011;44550;43.864;25.986;2023-09-18T23:13:20;6.20;;;5.40;;
58244;SDS011;44550;43.864;25.986;2023-09-18T23:17:22;10.32;;;5.60;;
58244;SDS011;44550;43.864;25.986;2023-09-18T23:21:24;5.93;;;5.40;;
58244;SDS011;44550;43.864;25.986;2023-09-18T23:25:26;6.72;;;5.00;;
58244;SDS011;44550;43.864;25.986;2023-09-18T23:29:44;6.70;;;6.05;;
58244;SDS011;44550;43.864;25.986;2023-09-18T23:33:46;6.10;;;5.47;;
58244;SDS011;44550;43.864;25.986;2023-09-18T23:37:53;9.07;;;5.65;;
58244;SDS011;44550;43.864;25.986;2023-09-18T23:41:56;7.25;;;5.90;;
58244;SDS011;44550;43.864;25.986;2023-09-18T23:46:00;11.10;;;6.05;;
58244;SDS011;44550;43.864;25.986;2023-09-18T23:50:02;6.68;;;6.05;;
58244;SDS011;44550;43.864;25.986;2023-09-18T23:54:08;10.95;;;6.38;;
58244;SDS011;44550;43.864;25.986;2023-09-18T23:58:11;10.00;;;5.65;;
